createdAt,value
2017-08-21T00:00:23.363Z,99849.57
2017-08-21T00:02:50.904Z,99849.81
2017-08-21T00:05:18.462Z,99850.75
2017-08-21T00:07:46.033Z,99850.20
2017-08-21T00:10:13.548Z,99846.55
2017-08-21T00:12:41.112Z,99851.34
2017-08-21T00:15:08.627Z,99842.19
2017-08-21T00:17:36.145Z,99841.09
2017-08-21T00:20:03.700Z,99844.69
2017-08-21T00:22:31.213Z,99841.67
2017-08-21T00:24:58.767Z,99840.63
2017-08-21T00:27:26.291Z,99846.89
2017-08-21T00:29:53.857Z,99839.52
2017-08-21T00:32:21.377Z,99847.47
2017-08-21T00:34:48.897Z,99852.06
2017-08-21T00:37:16.533Z,99860.68
2017-08-21T00:39:44.054Z,99844.88
2017-08-21T00:42:11.595Z,99843.63
2017-08-21T00:44:39.108Z,99831.63
2017-08-21T00:47:06.678Z,99829.77
2017-08-21T00:49:34.192Z,99829.88
2017-08-21T00:52:01.702Z,99831.73
2017-08-21T00:54:29.281Z,99825.98
2017-08-21T00:56:56.798Z,99818.94
2017-08-21T00:59:24.342Z,99830.27
2017-08-21T01:01:51.864Z,99834.44
2017-08-21T01:04:19.434Z,99827.68
2017-08-21T01:06:46.983Z,99814.34
2017-08-21T01:09:14.538Z,99808.80
2017-08-21T01:11:42.093Z,99806.68
2017-08-21T01:14:09.626Z,99814.36
2017-08-21T01:16:37.175Z,99808.02
2017-08-21T01:19:04.701Z,99809.83
2017-08-21T01:21:32.336Z,99807.02
2017-08-21T01:23:59.896Z,99809.16
2017-08-21T01:26:27.409Z,99819.16
2017-08-21T01:28:54.963Z,99815.80
2017-08-21T01:31:22.575Z,99816.55
2017-08-21T01:33:50.122Z,99813.09
2017-08-21T01:36:17.639Z,99805.77
2017-08-21T01:38:45.233Z,99803.75
2017-08-21T01:41:12.864Z,99810.33
2017-08-21T01:43:40.385Z,99813.31
2017-08-21T01:46:08.037Z,99814.78
2017-08-21T01:48:35.561Z,99809.80
2017-08-21T01:51:03.122Z,99810.31
2017-08-21T01:53:30.641Z,99817.36
2017-08-21T01:55:58.377Z,99818.57
2017-08-21T01:58:25.911Z,99812.89
2017-08-21T02:00:53.431Z,99791.20
2017-08-21T02:03:20.977Z,99764.22
2017-08-21T02:05:48.490Z,99756.23
2017-08-21T02:08:16.053Z,99783.30
2017-08-21T02:10:43.633Z,99805.95
2017-08-21T02:13:11.201Z,99818.66
2017-08-21T02:15:38.710Z,99823.88
2017-08-21T02:18:06.232Z,99814.58
2017-08-21T02:20:33.779Z,99810.13
2017-08-21T02:23:01.297Z,99802.87
2017-08-21T02:25:28.851Z,99810.55
2017-08-21T02:27:56.449Z,99799.34
2017-08-21T02:30:24.017Z,99796.03
2017-08-21T02:32:51.543Z,99785.05
2017-08-21T02:35:19.060Z,99784.78
2017-08-21T02:37:46.606Z,99785.86
2017-08-21T02:40:14.142Z,99787.21
2017-08-21T02:42:41.698Z,99792.30
2017-08-21T02:45:09.264Z,99787.55
2017-08-21T02:47:36.821Z,99780.27
2017-08-21T02:50:04.338Z,99776.84
2017-08-21T02:52:31.866Z,99788.72
2017-08-21T02:54:59.426Z,99789.91
2017-08-21T02:57:26.942Z,99795.78
2017-08-21T02:59:54.502Z,99794.69
2017-08-21T03:02:22.031Z,99808.19
2017-08-21T03:04:49.547Z,99817.34
2017-08-21T03:07:17.086Z,99811.56
2017-08-21T03:09:44.601Z,99807.25
2017-08-21T03:12:12.170Z,99810.22
2017-08-21T03:14:39.699Z,99827.56
2017-08-21T03:17:07.211Z,99821.19
2017-08-21T03:19:34.774Z,99817.53
2017-08-21T03:22:02.342Z,99821.42
2017-08-21T03:24:29.903Z,99812.98
2017-08-21T03:26:57.471Z,99797.88
2017-08-21T03:29:25.046Z,99788.34
2017-08-21T03:31:52.566Z,99791.16
2017-08-21T03:34:20.145Z,99784.28
2017-08-21T03:36:47.757Z,99796.59
2017-08-21T03:39:15.282Z,99793.86
2017-08-21T03:41:42.841Z,99799.17
2017-08-21T03:44:10.365Z,99784.94
2017-08-21T03:46:37.998Z,99787.66
2017-08-21T03:49:05.517Z,99786.70
2017-08-21T03:51:33.038Z,99790.63
2017-08-21T03:54:00.593Z,99781.66
2017-08-21T03:56:28.109Z,99777.97
2017-08-21T03:58:55.670Z,99782.02
2017-08-21T04:01:23.185Z,99780.36
2017-08-21T04:03:50.824Z,99771.13
2017-08-21T04:06:18.396Z,99768.01
2017-08-21T04:08:45.909Z,99776.14
2017-08-21T04:11:13.474Z,99786.75
2017-08-21T04:13:41.042Z,99788.74
2017-08-21T04:16:08.608Z,99787.42
2017-08-21T04:18:36.159Z,99789.16
2017-08-21T04:21:03.675Z,99794.56
2017-08-21T04:23:31.256Z,99809.71
2017-08-21T04:25:58.789Z,99805.28
2017-08-21T04:28:26.357Z,99801.55
2017-08-21T04:30:53.961Z,99802.82
2017-08-21T04:33:21.477Z,99810.18
2017-08-21T04:35:49.056Z,99806.00
2017-08-21T04:38:16.639Z,99807.25
2017-08-21T04:40:44.197Z,99810.13
2017-08-21T04:43:11.709Z,99816.12
2017-08-21T04:45:39.278Z,99813.69
2017-08-21T04:48:06.799Z,99814.61
2017-08-21T04:50:34.322Z,99814.08
2017-08-21T04:53:01.975Z,99812.75
2017-08-21T04:55:29.497Z,99818.73
2017-08-21T04:57:57.049Z,99816.88
2017-08-21T05:00:24.597Z,99818.81
2017-08-21T05:02:52.213Z,99812.62
2017-08-21T05:05:19.742Z,99821.70
2017-08-21T05:07:47.261Z,99816.98
2017-08-21T05:10:14.832Z,99827.59
2017-08-21T05:12:42.373Z,99830.28
2017-08-21T05:15:09.933Z,99819.77
2017-08-21T05:17:37.456Z,99817.73
2017-08-21T05:20:05.021Z,99819.38
2017-08-21T05:22:32.536Z,99826.11
2017-08-21T05:25:00.058Z,99823.96
2017-08-21T05:27:27.618Z,99825.33
2017-08-21T05:29:55.137Z,99829.52
2017-08-21T05:32:22.685Z,99827.36
2017-08-21T05:34:50.211Z,99829.52
2017-08-21T05:37:17.783Z,99814.28
2017-08-21T05:39:45.377Z,99810.77
2017-08-21T05:42:12.894Z,99821.28
2017-08-21T05:44:40.462Z,99818.45
2017-08-21T05:47:08.083Z,99819.97
2017-08-21T05:49:35.633Z,99823.46
2017-08-21T05:52:04.780Z,99821.45
2017-08-21T05:54:32.962Z,99834.83
2017-08-21T05:57:00.880Z,99836.02
2017-08-21T05:59:28.410Z,99838.31
2017-08-21T06:01:55.964Z,99831.86
2017-08-21T06:04:23.560Z,99835.61
2017-08-21T06:06:51.121Z,99838.60
2017-08-21T06:09:18.633Z,99845.91
2017-08-21T06:11:46.201Z,99848.47
2017-08-21T06:14:13.729Z,99852.27
2017-08-21T06:16:41.248Z,99855.22
2017-08-21T06:19:08.806Z,99852.80
2017-08-21T06:21:36.321Z,99858.04
2017-08-21T06:24:03.871Z,99851.99
2017-08-21T06:26:31.430Z,99846.88
2017-08-21T06:28:59.007Z,99850.66
2017-08-21T06:31:26.521Z,99853.36
2017-08-21T06:33:54.048Z,99854.04
2017-08-21T06:36:21.610Z,99857.12
2017-08-21T06:38:49.130Z,99850.94
2017-08-21T06:41:16.682Z,99855.11
2017-08-21T06:43:44.212Z,99847.83
2017-08-21T06:46:11.742Z,99850.25
2017-08-21T06:48:39.295Z,99850.83
2017-08-21T06:51:06.821Z,99848.78
2017-08-21T06:53:34.371Z,99853.90
2017-08-21T06:56:01.894Z,99852.02
2017-08-21T06:58:29.513Z,99862.00
2017-08-21T07:00:57.040Z,99863.63
2017-08-21T07:03:24.570Z,99856.23
2017-08-21T07:05:52.116Z,99858.25
2017-08-21T07:08:19.634Z,99861.77
2017-08-21T07:10:47.181Z,99859.72
2017-08-21T07:13:14.696Z,99864.17
2017-08-21T07:15:42.245Z,99851.67
2017-08-21T07:18:09.758Z,99853.27
2017-08-21T07:20:37.337Z,99851.38
2017-08-21T07:23:04.857Z,99850.32
2017-08-21T07:25:32.373Z,99848.81
2017-08-21T07:27:59.929Z,99846.95
2017-08-21T07:30:27.447Z,99850.59
2017-08-21T07:32:55.008Z,99849.64
2017-08-21T07:35:22.525Z,99847.47
2017-08-21T07:37:50.042Z,99843.99
2017-08-21T07:40:17.593Z,99849.39
2017-08-21T07:42:45.105Z,99853.44
2017-08-21T07:45:12.652Z,99842.64
2017-08-21T07:47:40.171Z,99838.44
2017-08-21T07:50:07.694Z,99841.47
2017-08-21T07:52:35.245Z,99839.19
2017-08-21T07:55:02.760Z,99841.61
2017-08-21T07:57:30.320Z,99848.35
2017-08-21T07:59:57.842Z,99840.00
2017-08-21T08:02:25.359Z,99845.52
2017-08-21T08:04:52.900Z,99843.77
2017-08-21T08:07:20.409Z,99847.69
2017-08-21T08:09:47.969Z,99846.47
2017-08-21T08:12:15.477Z,99846.22
2017-08-21T08:14:43.000Z,99846.75
2017-08-21T08:17:10.552Z,99839.89
2017-08-21T08:19:38.073Z,99838.25
2017-08-21T08:22:05.628Z,99838.25
2017-08-21T08:24:33.144Z,99836.78
2017-08-21T08:27:00.709Z,99841.36
2017-08-21T08:29:28.232Z,99833.14
2017-08-21T08:31:55.749Z,99828.28
2017-08-21T08:34:23.297Z,99829.76
2017-08-21T08:36:50.809Z,99833.55
2017-08-21T08:39:18.361Z,99828.69
2017-08-21T08:41:45.875Z,99830.16
2017-08-21T08:44:13.443Z,99831.11
2017-08-21T08:46:40.965Z,99833.97
2017-08-21T08:49:08.485Z,99832.34
2017-08-21T08:51:36.033Z,99836.27
2017-08-21T08:54:03.548Z,99841.52
2017-08-21T08:56:31.095Z,99838.81
2017-08-21T08:58:58.618Z,99837.05
2017-08-21T09:01:26.177Z,99828.16
2017-08-21T09:03:53.698Z,99829.23
2017-08-21T09:06:21.214Z,99833.56
2017-08-21T09:08:48.766Z,99832.74
2017-08-21T09:11:16.273Z,99827.23
2017-08-21T09:13:43.829Z,99825.06
2017-08-21T09:16:11.351Z,99822.24
2017-08-21T09:18:38.897Z,99827.48
2017-08-21T09:21:06.415Z,99824.25
2017-08-21T09:23:33.955Z,99827.48
2017-08-21T09:26:01.506Z,99828.02
2017-08-21T09:28:29.025Z,99832.23
2017-08-21T09:30:56.577Z,99828.31
2017-08-21T09:33:24.093Z,99828.19
2017-08-21T09:35:51.653Z,99828.20
2017-08-21T09:38:19.178Z,99816.17
2017-08-21T09:40:46.692Z,99818.61
2017-08-21T09:43:14.250Z,99817.68
2017-08-21T09:45:41.769Z,99827.54
2017-08-21T09:48:09.318Z,99829.67
2017-08-21T09:50:36.837Z,99830.49
2017-08-21T09:53:04.394Z,99827.67
2017-08-21T09:55:31.914Z,99823.48
2017-08-21T09:57:59.481Z,99823.34
2017-08-21T10:00:27.008Z,99834.42
2017-08-21T10:02:54.521Z,99832.13
2017-08-21T10:05:22.071Z,99834.55
2017-08-21T10:07:49.592Z,99837.12
2017-08-21T10:10:17.146Z,99835.66
2017-08-21T10:12:44.657Z,99836.19
2017-08-21T10:15:12.231Z,99836.06
2017-08-21T10:17:39.755Z,99831.61
2017-08-21T10:20:07.286Z,99833.61
2017-08-21T10:22:34.841Z,99825.10
2017-08-21T10:25:02.360Z,99822.28
2017-08-21T10:27:29.926Z,99822.28
2017-08-21T10:29:57.441Z,99811.48
2017-08-21T10:32:24.957Z,99815.41
2017-08-21T10:34:52.498Z,99815.00
2017-08-21T10:37:20.005Z,99809.73
2017-08-21T10:39:47.569Z,99813.25
2017-08-21T10:42:15.086Z,99807.20
2017-08-21T10:44:42.606Z,99816.48
2017-08-21T10:47:10.165Z,99808.92
2017-08-21T10:49:37.685Z,99804.09
2017-08-21T10:52:05.234Z,99809.73
2017-08-21T10:54:32.745Z,99806.91
2017-08-21T10:57:00.327Z,99791.94
2017-08-21T10:59:27.845Z,99788.14
2017-08-21T11:01:55.362Z,99784.66
2017-08-21T11:04:22.910Z,99783.44
2017-08-21T11:06:50.427Z,99785.45
2017-08-21T11:09:17.983Z,99781.16
2017-08-21T11:11:45.499Z,99774.53
2017-08-21T11:14:13.048Z,99782.91
2017-08-21T11:16:40.560Z,99777.39
2017-08-21T11:19:08.081Z,99772.23
2017-08-21T11:21:35.628Z,99777.92
2017-08-21T11:24:03.150Z,99768.47
2017-08-21T11:26:30.705Z,99774.13
2017-08-21T11:28:58.226Z,99773.88
2017-08-21T11:31:25.786Z,99775.10
2017-08-21T11:33:53.301Z,99773.19
2017-08-21T11:36:20.843Z,99775.52
2017-08-21T11:38:48.408Z,99777.52
2017-08-21T11:41:15.936Z,99774.95
2017-08-21T11:43:43.496Z,99776.45
2017-08-21T11:46:11.019Z,99770.36
2017-08-21T11:48:38.550Z,99774.41
2017-08-21T11:51:06.104Z,99770.77
2017-08-21T11:53:33.649Z,99762.14
2017-08-21T11:56:01.356Z,99756.05
2017-08-21T11:58:28.915Z,99749.86
2017-08-21T12:00:56.438Z,99752.00
2017-08-21T12:03:24.001Z,99751.21
2017-08-21T12:05:51.514Z,99749.86
2017-08-21T12:08:19.061Z,99746.59
2017-08-21T12:10:46.609Z,99742.17
2017-08-21T12:13:14.170Z,99736.08
2017-08-21T12:15:41.737Z,99744.59
2017-08-21T12:18:09.253Z,99737.03
2017-08-21T12:20:36.822Z,99737.97
2017-08-21T12:23:04.340Z,99736.62
2017-08-21T12:25:31.865Z,99725.28
2017-08-21T12:27:59.435Z,99726.09
2017-08-21T12:30:26.966Z,99722.58
2017-08-21T12:32:54.519Z,99720.04
2017-08-21T12:35:22.041Z,99713.95
2017-08-21T12:37:49.625Z,99717.88
2017-08-21T12:40:17.143Z,99712.34
2017-08-21T12:42:44.690Z,99711.53
2017-08-21T12:45:12.367Z,99708.02
2017-08-21T12:47:39.883Z,99705.72
2017-08-21T12:50:07.433Z,99703.30
2017-08-21T12:52:34.952Z,99704.78
2017-08-21T12:55:02.508Z,99707.08
2017-08-21T12:57:30.023Z,99703.84
2017-08-21T12:59:57.543Z,99703.43
2017-08-21T13:02:25.096Z,99696.14
2017-08-21T13:04:52.635Z,99692.75
2017-08-21T13:07:20.287Z,99692.50
2017-08-21T13:09:47.966Z,99687.50
2017-08-21T13:12:15.611Z,99685.34
2017-08-21T13:14:43.171Z,99683.05
2017-08-21T13:17:10.695Z,99684.11
2017-08-21T13:19:38.256Z,99674.13
2017-08-21T13:22:05.779Z,99678.87
2017-08-21T13:25:05.440Z,99680.47
2017-08-21T13:27:33.018Z,99675.35
2017-08-21T13:30:00.702Z,99673.47
2017-08-21T13:32:28.255Z,99675.63
2017-08-21T13:34:55.774Z,99664.55
2017-08-21T13:37:23.364Z,99670.07
2017-08-21T13:39:50.876Z,99660.74
2017-08-21T13:42:18.422Z,99662.38
2017-08-21T13:44:46.033Z,99658.32
2017-08-21T13:47:13.565Z,99657.25
2017-08-21T13:49:41.084Z,99656.44
2017-08-21T13:52:08.610Z,99654.42
2017-08-21T13:54:36.176Z,99655.49
2017-08-21T13:57:03.741Z,99651.72
2017-08-21T13:59:31.290Z,99652.13
2017-08-21T14:01:58.805Z,99649.55
2017-08-21T14:04:26.381Z,99647.26
2017-08-21T14:06:53.904Z,99647.26
2017-08-21T14:09:21.425Z,99641.86
2017-08-21T14:11:48.984Z,99643.86
2017-08-21T14:14:16.552Z,99646.19
2017-08-21T14:16:44.109Z,99641.03
2017-08-21T14:19:11.633Z,99642.13
2017-08-21T14:21:39.215Z,99637.52
2017-08-21T14:24:06.736Z,99641.16
2017-08-21T14:26:34.261Z,99638.87
2017-08-21T14:29:01.815Z,99636.04
2017-08-21T14:31:29.345Z,99628.75
2017-08-21T14:33:56.896Z,99632.27
2017-08-21T14:36:24.415Z,99632.27
2017-08-21T14:38:51.968Z,99633.08
2017-08-21T14:41:19.497Z,99631.45
2017-08-21T14:43:47.064Z,99632.92
2017-08-21T14:46:14.610Z,99626.17
2017-08-21T14:48:42.134Z,99626.98
2017-08-21T14:51:09.744Z,99626.86
2017-08-21T14:53:37.265Z,99628.08
2017-08-21T14:58:31.653Z,99634.43
2017-08-21T15:00:59.168Z,99632.92
2017-08-21T15:03:26.720Z,99631.03
2017-08-21T15:05:54.229Z,99636.03
2017-08-21T15:08:21.841Z,99637.79
2017-08-21T15:10:49.403Z,99645.36
2017-08-21T15:13:17.040Z,99648.06
2017-08-21T15:15:44.558Z,99638.48
2017-08-21T15:18:12.184Z,99642.53
2017-08-21T15:20:39.742Z,99640.11
2017-08-21T15:23:07.302Z,99634.42
2017-08-21T15:25:34.866Z,99638.07
2017-08-21T15:28:02.390Z,99639.73
2017-08-21T15:30:29.925Z,99629.17
2017-08-21T15:32:57.588Z,99620.53
2017-08-21T15:35:25.148Z,99618.23
2017-08-21T15:37:52.716Z,99617.30
2017-08-21T15:40:20.233Z,99625.94
2017-08-21T15:42:47.827Z,99630.80
2017-08-21T15:45:15.389Z,99633.38
2017-08-21T15:47:42.912Z,99627.28
2017-08-21T15:50:10.470Z,99627.96
2017-08-21T15:52:38.066Z,99622.81
2017-08-21T15:55:05.728Z,99630.39
2017-08-21T15:57:33.284Z,99631.33
2017-08-21T16:00:00.819Z,99626.63
2017-08-21T16:02:28.410Z,99632.02
2017-08-21T16:04:55.966Z,99630.26
2017-08-21T16:07:23.537Z,99635.94
2017-08-21T16:09:51.111Z,99638.23
2017-08-21T16:12:18.707Z,99639.44
2017-08-21T16:14:46.265Z,99642.42
2017-08-21T16:17:14.558Z,99636.72
2017-08-21T16:19:42.143Z,99637.13
2017-08-21T16:22:09.731Z,99630.13
2017-08-21T16:24:37.398Z,99626.86
2017-08-21T16:27:04.914Z,99622.27
2017-08-21T16:29:32.479Z,99622.14
2017-08-21T16:32:00.005Z,99620.91
2017-08-21T16:34:27.525Z,99612.41
2017-08-21T16:36:55.088Z,99615.11
2017-08-21T16:39:22.619Z,99615.92
2017-08-21T16:41:50.189Z,99621.07
2017-08-21T16:44:17.704Z,99615.13
2017-08-21T16:46:45.285Z,99611.20
2017-08-21T16:49:12.847Z,99611.45
2017-08-21T16:51:40.393Z,99614.70
2017-08-21T16:54:07.976Z,99615.25
2017-08-21T16:56:35.556Z,99610.66
2017-08-21T16:59:03.122Z,99615.78
2017-08-21T17:01:30.637Z,99612.42
2017-08-21T17:03:58.157Z,99611.60
2017-08-21T17:06:25.724Z,99614.84
2017-08-21T17:08:53.263Z,99615.12
2017-08-21T17:11:20.829Z,99613.06
2017-08-21T17:13:48.380Z,99616.58
2017-08-21T17:16:16.151Z,99613.16
2017-08-21T17:18:43.673Z,99612.59
2017-08-21T17:21:11.197Z,99607.73
2017-08-21T17:23:38.747Z,99601.23
2017-08-21T17:26:06.268Z,99609.73
2017-08-21T17:28:33.842Z,99608.62
2017-08-21T17:31:01.364Z,99608.22
2017-08-21T17:33:28.926Z,99607.45
2017-08-21T17:35:56.520Z,99614.63
2017-08-21T17:38:24.037Z,99618.82
2017-08-21T17:40:51.639Z,99619.91
2017-08-21T17:43:19.151Z,99619.49
2017-08-21T17:45:46.708Z,99620.31
2017-08-21T17:48:14.287Z,99620.84
2017-08-21T17:50:41.858Z,99624.37
2017-08-21T17:53:09.381Z,99622.48
2017-08-21T17:55:36.901Z,99622.31
2017-08-21T17:58:04.455Z,99623.67
2017-08-21T18:00:32.927Z,99618.02
2017-08-21T18:03:00.481Z,99626.13
2017-08-21T18:05:27.996Z,99624.61
2017-08-21T18:07:55.574Z,99619.36
2017-08-21T18:10:23.145Z,99618.42
2017-08-21T18:12:50.704Z,99620.31
2017-08-21T18:15:18.258Z,99620.31
2017-08-21T18:17:45.786Z,99621.38
2017-08-21T18:20:13.384Z,99623.27
2017-08-21T18:22:40.921Z,99623.14
2017-08-21T18:25:08.474Z,99622.33
2017-08-21T18:27:35.991Z,99628.95
2017-08-21T18:30:03.515Z,99627.73
2017-08-21T18:32:31.075Z,99625.31
2017-08-21T18:34:58.602Z,99624.09
2017-08-21T18:37:26.198Z,99628.02
2017-08-21T18:39:53.758Z,99633.68
2017-08-21T18:42:21.284Z,99635.84
2017-08-21T18:44:48.844Z,99636.25
2017-08-21T18:47:16.360Z,99645.31
2017-08-21T18:49:43.915Z,99639.09
2017-08-21T18:52:11.456Z,99637.48
2017-08-21T18:54:39.013Z,99643.42
2017-08-21T18:57:06.535Z,99644.48
2017-08-21T18:59:34.140Z,99651.81
2017-08-21T19:02:01.702Z,99644.37
2017-08-21T19:04:29.222Z,99657.77
2017-08-21T19:06:56.765Z,99654.65
2017-08-21T19:09:24.309Z,99658.70
2017-08-21T19:11:51.875Z,99657.47
2017-08-21T19:14:19.394Z,99656.38
2017-08-21T19:16:46.920Z,99660.58
2017-08-21T19:19:14.484Z,99656.23
2017-08-21T19:21:42.003Z,99653.50
2017-08-21T19:24:09.628Z,99660.66
2017-08-21T19:26:37.149Z,99663.77
2017-08-21T19:29:04.675Z,99662.02
2017-08-21T19:31:32.248Z,99663.66
2017-08-21T19:34:01.690Z,99658.78
2017-08-21T19:36:29.577Z,99658.93
2017-08-21T19:38:57.542Z,99652.98
2017-08-21T19:41:25.248Z,99655.53
2017-08-21T19:43:53.188Z,99657.81
2017-08-21T19:46:20.738Z,99658.22
2017-08-21T19:48:48.305Z,99654.73
2017-08-21T19:51:15.890Z,99654.46
2017-08-21T19:53:43.415Z,99657.02
2017-08-21T19:56:10.961Z,99653.12
2017-08-21T19:58:38.576Z,99640.92
2017-08-21T20:01:06.149Z,99646.74
2017-08-21T20:03:33.658Z,99651.33
2017-08-21T20:06:01.174Z,99650.95
2017-08-21T20:08:28.721Z,99641.34
2017-08-21T20:10:56.243Z,99655.55
2017-08-21T20:13:23.835Z,99645.67
2017-08-21T20:15:51.357Z,99648.92
2017-08-21T20:18:18.872Z,99655.02
2017-08-21T20:20:46.434Z,99644.06
2017-08-21T20:23:13.944Z,99644.72
2017-08-21T20:25:41.508Z,99648.89
2017-08-21T20:28:09.019Z,99647.68
2017-08-21T20:30:36.538Z,99649.05
2017-08-21T20:33:04.094Z,99649.98
2017-08-21T20:35:31.768Z,99648.63
2017-08-21T20:37:59.818Z,99653.91
2017-08-21T20:40:27.381Z,99643.20
2017-08-21T20:42:55.164Z,99643.62
2017-08-21T20:45:23.236Z,99650.66
2017-08-21T20:47:51.097Z,99647.66
2017-08-21T20:50:19.192Z,99648.36
2017-08-21T20:52:46.840Z,99648.48
2017-08-21T20:55:14.409Z,99641.02
2017-08-21T20:57:42.059Z,99643.60
2017-08-21T21:00:09.606Z,99641.70
2017-08-21T21:02:37.170Z,99638.16
2017-08-21T21:05:04.737Z,99636.41
2017-08-21T21:07:32.296Z,99639.38
2017-08-21T21:09:59.959Z,99640.73
2017-08-21T21:12:27.485Z,99641.27
2017-08-21T21:14:55.062Z,99644.11
2017-08-21T21:17:22.847Z,99639.63
2017-08-21T21:19:50.362Z,99641.91
2017-08-21T21:22:17.915Z,99642.22
2017-08-21T21:24:45.447Z,99640.53
2017-08-21T21:27:13.029Z,99645.71
2017-08-21T21:29:40.647Z,99651.13
2017-08-21T21:32:08.251Z,99652.91
2017-08-21T21:34:35.808Z,99653.48
2017-08-21T21:37:03.322Z,99658.72
2017-08-21T21:39:30.924Z,99662.66
2017-08-21T21:41:58.449Z,99657.81
2017-08-21T21:44:26.000Z,99653.36
2017-08-21T21:46:53.537Z,99657.13
2017-08-21T21:49:21.109Z,99658.74
2017-08-21T21:51:48.631Z,99661.99
2017-08-21T21:54:16.150Z,99665.50
2017-08-21T21:56:43.704Z,99661.45
2017-08-21T21:59:11.228Z,99663.75
2017-08-21T22:01:38.794Z,99661.43
2017-08-21T22:04:06.402Z,99654.15
2017-08-21T22:06:33.958Z,99663.06
2017-08-21T22:09:01.474Z,99654.55
2017-08-21T22:11:28.994Z,99651.98
2017-08-21T22:13:56.556Z,99662.09
2017-08-21T22:16:24.088Z,99654.94
2017-08-21T22:18:51.649Z,99657.36
2017-08-21T22:21:19.177Z,99655.34
2017-08-21T22:23:46.721Z,99661.95
2017-08-21T22:26:14.244Z,99657.77
2017-08-21T22:28:41.802Z,99655.19
2017-08-21T22:31:09.324Z,99660.31
2017-08-21T22:33:36.885Z,99657.08
2017-08-21T22:36:04.414Z,99662.19
2017-08-21T22:38:31.952Z,99659.77
2017-08-21T22:40:59.514Z,99657.77
2017-08-21T22:43:27.029Z,99653.16
2017-08-21T22:45:54.601Z,99657.36
2017-08-21T22:48:22.127Z,99656.26
2017-08-21T22:50:49.686Z,99655.03
2017-08-21T22:53:17.200Z,99648.03
2017-08-21T22:55:44.762Z,99651.67
2017-08-21T22:58:12.280Z,99653.02
2017-08-21T23:00:39.812Z,99646.64
2017-08-21T23:03:07.371Z,99649.34
2017-08-21T23:05:34.886Z,99637.88
2017-08-21T23:08:02.438Z,99643.41
2017-08-21T23:10:29.957Z,99640.58
2017-08-21T23:12:57.507Z,99640.70
2017-08-21T23:15:25.021Z,99640.99
2017-08-21T23:17:52.540Z,99644.34
2017-08-21T23:20:20.094Z,99644.06
2017-08-21T23:22:47.617Z,99638.62
2017-08-21T23:25:15.172Z,99632.94
2017-08-21T23:27:42.690Z,99631.17
2017-08-21T23:30:10.242Z,99636.16
2017-08-21T23:32:37.761Z,99629.66
2017-08-21T23:35:05.338Z,99624.52
2017-08-21T23:37:32.865Z,99627.06
2017-08-21T23:40:00.383Z,99620.99
2017-08-21T23:42:27.938Z,99626.92
2017-08-21T23:44:55.524Z,99627.97
2017-08-21T23:47:23.083Z,99627.32
2017-08-21T23:49:50.598Z,99622.34
2017-08-21T23:52:18.172Z,99625.17
2017-08-21T23:54:45.717Z,99619.25
2017-08-21T23:57:13.320Z,99610.63
2017-08-21T23:59:40.865Z,99609.94
